Melbourne International Airport
YMML : now visible

Airfield :











YOU CAN JOIN US ON...

 
LOGIN :

Register | Disclaimer

   EN    FR    IT 

 









Legend :    VFR   Marginal VFR   IFR   Intensive IFR   Very Intensive IFR
Visi :
Ceiling :
>= 8 km
>= 3000ft
5 to 8 km
1000 to 3000 ft
1500m to 5 km
500 to 1000 ft
800 to 1500m
200 to 500 ft
< 800m
< 200 ft
Symbols :   Thunderstorms  Fog  Heavy snow  Heavy precipitations  Wind > 20 kt






- Airport Elevation : 434 ft
- IATA code : MEL


YMML - Melbourne International

CURRENT METAR :
  • 271130Z 01013KT CAVOK 13/09 Q1019 NOSIG

EXPIRED METARs :
  • 271100Z 01014KT CAVOK 13/09 Q1019
  • 271030Z 01014KT CAVOK 13/09 Q1019 NOSIG
  • 271000Z 01013KT CAVOK 13/10 Q1019
  • 270930Z 01014KT CAVOK 13/09 Q1018 NOSIG
  • 270900Z 01016KT CAVOK 13/10 Q1018

TAF TAF YMML
Valid from the 27 at 12:00 until the 28 at 18:00 UTC


271054Z 2712/2818 01010KT CAVOK
FM271600 01010KT 9999 -SHRA BKN040
FM272100 36007KT CAVOK
FM280300 27008KT 9999 SCT040 BKN060
FM281000 34007KT CAVOK
YMMM FIR / Oceania



MET'MAP, your aeronautical weather chart ! - Copyright ORBIFLY December 2007 - Disclaimer

ORBIFLY MET'MAP TEAM :

Programming & Development : Alexandra Zaïnal
Concept & original design : Baudouin d'Aumeries
Assistance for programming : Marc-Olivier Méhu
Technical & hardware support : Manuel Goepfert

Contact : metmap@orbifly.com




SOURCES & CREDITS :

   NOAA       Earth
Advisory